sensor_id;sensor_type;location;lat;lon;timestamp;P1;durP1;ratioP1;P2;durP2;ratioP2
10979;SDS011;5543;51.734;8.744;2022-11-20T00:01:50;5.37;;;2.63;;
10979;SDS011;5543;51.734;8.744;2022-11-20T00:04:18;1.70;;;1.50;;
10979;SDS011;5543;51.734;8.744;2022-11-20T00:06:46;2.67;;;1.93;;
10979;SDS011;5543;51.734;8.744;2022-11-20T00:09:15;2.93;;;1.80;;
10979;SDS011;5543;51.734;8.744;2022-11-20T00:11:43;4.47;;;2.13;;
10979;SDS011;5543;51.734;8.744;2022-11-20T00:14:12;6.83;;;2.30;;
10979;SDS011;5543;51.734;8.744;2022-11-20T00:16:41;3.87;;;2.30;;
10979;SDS011;5543;51.734;8.744;2022-11-20T00:19:09;3.73;;;2.23;;
10979;SDS011;5543;51.734;8.744;2022-11-20T00:21:37;4.30;;;1.83;;
10979;SDS011;5543;51.734;8.744;2022-11-20T00:24:08;2.90;;;2.37;;
10979;SDS011;5543;51.734;8.744;2022-11-20T00:26:36;5.20;;;2.17;;
10979;SDS011;5543;51.734;8.744;2022-11-20T00:29:05;2.07;;;1.40;;
10979;SDS011;5543;51.734;8.744;2022-11-20T00:31:35;3.83;;;2.13;;
10979;SDS011;5543;51.734;8.744;2022-11-20T00:34:03;3.70;;;2.53;;
10979;SDS011;5543;51.734;8.744;2022-11-20T00:36:32;3.17;;;1.80;;
10979;SDS011;5543;51.734;8.744;2022-11-20T00:39:01;3.70;;;3.03;;
10979;SDS011;5543;51.734;8.744;2022-11-20T00:41:29;5.77;;;1.63;;
10979;SDS011;5543;51.734;8.744;2022-11-20T00:43:58;2.80;;;1.63;;
10979;SDS011;5543;51.734;8.744;2022-11-20T00:46:26;3.97;;;2.07;;
10979;SDS011;5543;51.734;8.744;2022-11-20T00:48:56;1.67;;;1.53;;
10979;SDS011;5543;51.734;8.744;2022-11-20T00:51:25;2.13;;;1.30;;
10979;SDS011;5543;51.734;8.744;2022-11-20T00:53:55;5.40;;;1.57;;
10979;SDS011;5543;51.734;8.744;2022-11-20T00:56:23;1.67;;;1.33;;
10979;SDS011;5543;51.734;8.744;2022-11-20T00:58:52;3.57;;;1.60;;
10979;SDS011;5543;51.734;8.744;2022-11-20T01:01:20;4.53;;;1.87;;
10979;SDS011;5543;51.734;8.744;2022-11-20T01:03:51;3.73;;;2.30;;
10979;SDS011;5543;51.734;8.744;2022-11-20T01:06:22;4.17;;;2.63;;
10979;SDS011;5543;51.734;8.744;2022-11-20T01:08:52;2.93;;;1.30;;
10979;SDS011;5543;51.734;8.744;2022-11-20T01:11:22;5.87;;;1.80;;
10979;SDS011;5543;51.734;8.744;2022-11-20T01:13:52;4.53;;;1.97;;
10979;SDS011;5543;51.734;8.744;2022-11-20T01:16:22;3.43;;;1.90;;
10979;SDS011;5543;51.734;8.744;2022-11-20T01:18:51;4.33;;;2.40;;
10979;SDS011;5543;51.734;8.744;2022-11-20T01:21:23;2.17;;;1.97;;
10979;SDS011;5543;51.734;8.744;2022-11-20T01:23:53;3.00;;;2.10;;
10979;SDS011;5543;51.734;8.744;2022-11-20T01:26:22;1.73;;;1.23;;
10979;SDS011;5543;51.734;8.744;2022-11-20T01:28:51;3.30;;;1.57;;
10979;SDS011;5543;51.734;8.744;2022-11-20T01:31:22;2.07;;;1.50;;
10979;SDS011;5543;51.734;8.744;2022-11-20T01:33:51;4.17;;;2.10;;
10979;SDS011;5543;51.734;8.744;2022-11-20T01:36:23;3.03;;;1.30;;
10979;SDS011;5543;51.734;8.744;2022-11-20T01:38:53;4.03;;;1.90;;
10979;SDS011;5543;51.734;8.744;2022-11-20T01:41:22;1.50;;;1.40;;
10979;SDS011;5543;51.734;8.744;2022-11-20T01:44:09;4.30;;;1.57;;
10979;SDS011;5543;51.734;8.744;2022-11-20T01:46:42;3.43;;;1.23;;
10979;SDS011;5543;51.734;8.744;2022-11-20T01:49:20;1.43;;;1.33;;
10979;SDS011;5543;51.734;8.744;2022-11-20T01:51:54;2.20;;;1.37;;
10979;SDS011;5543;51.734;8.744;2022-11-20T01:54:27;1.93;;;1.37;;
10979;SDS011;5543;51.734;8.744;2022-11-20T01:57:00;2.40;;;1.50;;
10979;SDS011;5543;51.734;8.744;2022-11-20T01:59:30;3.43;;;1.70;;
10979;SDS011;5543;51.734;8.744;2022-11-20T02:01:59;1.60;;;1.40;;
10979;SDS011;5543;51.734;8.744;2022-11-20T02:04:27;1.17;;;1.03;;
10979;SDS011;5543;51.734;8.744;2022-11-20T02:06:57;2.80;;;1.43;;
10979;SDS011;5543;51.734;8.744;2022-11-20T02:09:27;1.20;;;1.10;;
10979;SDS011;5543;51.734;8.744;2022-11-20T02:11:56;2.60;;;1.33;;
10979;SDS011;5543;51.734;8.744;2022-11-20T02:14:25;3.20;;;1.40;;
10979;SDS011;5543;51.734;8.744;2022-11-20T02:16:53;2.23;;;1.40;;
10979;SDS011;5543;51.734;8.744;2022-11-20T02:19:23;1.30;;;0.83;;
10979;SDS011;5543;51.734;8.744;2022-11-20T02:21:58;2.93;;;1.23;;
10979;SDS011;5543;51.734;8.744;2022-11-20T02:24:33;0.73;;;0.73;;
10979;SDS011;5543;51.734;8.744;2022-11-20T02:27:02;3.47;;;2.93;;
10979;SDS011;5543;51.734;8.744;2022-11-20T02:29:34;4.00;;;1.60;;
10979;SDS011;5543;51.734;8.744;2022-11-20T02:32:05;2.37;;;1.67;;
10979;SDS011;5543;51.734;8.744;2022-11-20T02:34:34;3.23;;;1.73;;
10979;SDS011;5543;51.734;8.744;2022-11-20T02:37:02;1.20;;;1.13;;
10979;SDS011;5543;51.734;8.744;2022-11-20T02:39:30;7.57;;;1.63;;
10979;SDS011;5543;51.734;8.744;2022-11-20T02:42:00;2.23;;;1.40;;
10979;SDS011;5543;51.734;8.744;2022-11-20T02:44:28;2.47;;;1.00;;
10979;SDS011;5543;51.734;8.744;2022-11-20T02:46:57;2.70;;;1.40;;
10979;SDS011;5543;51.734;8.744;2022-11-20T02:49:25;3.17;;;1.40;;
10979;SDS011;5543;51.734;8.744;2022-11-20T02:51:54;1.90;;;0.97;;
10979;SDS011;5543;51.734;8.744;2022-11-20T02:54:22;5.23;;;1.67;;
10979;SDS011;5543;51.734;8.744;2022-11-20T02:56:50;4.30;;;1.27;;
10979;SDS011;5543;51.734;8.744;2022-11-20T02:59:20;1.33;;;0.93;;
10979;SDS011;5543;51.734;8.744;2022-11-20T03:01:48;1.43;;;1.10;;
10979;SDS011;5543;51.734;8.744;2022-11-20T03:04:17;1.70;;;1.50;;
10979;SDS011;5543;51.734;8.744;2022-11-20T03:06:45;0.70;;;0.70;;
10979;SDS011;5543;51.734;8.744;2022-11-20T03:09:13;2.40;;;1.30;;
10979;SDS011;5543;51.734;8.744;2022-11-20T03:11:41;1.87;;;1.30;;
10979;SDS011;5543;51.734;8.744;2022-11-20T03:14:09;2.23;;;1.13;;
10979;SDS011;5543;51.734;8.744;2022-11-20T03:16:39;2.63;;;1.83;;
10979;SDS011;5543;51.734;8.744;2022-11-20T03:19:07;1.47;;;1.20;;
10979;SDS011;5543;51.734;8.744;2022-11-20T03:21:35;6.10;;;1.83;;
10979;SDS011;5543;51.734;8.744;2022-11-20T03:24:03;0.83;;;0.80;;
10979;SDS011;5543;51.734;8.744;2022-11-20T03:26:32;2.37;;;1.10;;
10979;SDS011;5543;51.734;8.744;2022-11-20T03:29:01;2.00;;;0.73;;
10979;SDS011;5543;51.734;8.744;2022-11-20T03:31:31;2.37;;;1.53;;
10979;SDS011;5543;51.734;8.744;2022-11-20T03:34:03;2.90;;;1.30;;
10979;SDS011;5543;51.734;8.744;2022-11-20T03:36:31;1.90;;;1.37;;
10979;SDS011;5543;51.734;8.744;2022-11-20T03:38:59;2.20;;;1.27;;
10979;SDS011;5543;51.734;8.744;2022-11-20T03:41:28;2.03;;;1.27;;
10979;SDS011;5543;51.734;8.744;2022-11-20T03:43:58;2.37;;;1.60;;
10979;SDS011;5543;51.734;8.744;2022-11-20T03:46:27;1.60;;;1.10;;
10979;SDS011;5543;51.734;8.744;2022-11-20T03:48:56;0.93;;;0.90;;
10979;SDS011;5543;51.734;8.744;2022-11-20T03:51:27;1.50;;;1.40;;
10979;SDS011;5543;51.734;8.744;2022-11-20T03:53:57;0.93;;;0.90;;
10979;SDS011;5543;51.734;8.744;2022-11-20T03:56:27;6.63;;;2.77;;
10979;SDS011;5543;51.734;8.744;2022-11-20T03:58:56;2.63;;;1.33;;
10979;SDS011;5543;51.734;8.744;2022-11-20T04:01:25;1.70;;;1.17;;
10979;SDS011;5543;51.734;8.744;2022-11-20T04:03:55;1.37;;;1.27;;
10979;SDS011;5543;51.734;8.744;2022-11-20T04:06:25;1.77;;;1.00;;
10979;SDS011;5543;51.734;8.744;2022-11-20T04:08:57;1.17;;;0.90;;
10979;SDS011;5543;51.734;8.744;2022-11-20T04:11:25;3.23;;;1.70;;
10979;SDS011;5543;51.734;8.744;2022-11-20T04:13:56;4.23;;;1.67;;
10979;SDS011;5543;51.734;8.744;2022-11-20T04:16:26;1.07;;;1.00;;
10979;SDS011;5543;51.734;8.744;2022-11-20T04:18:56;2.40;;;1.10;;
10979;SDS011;5543;51.734;8.744;2022-11-20T04:21:26;3.30;;;1.43;;
10979;SDS011;5543;51.734;8.744;2022-11-20T04:23:56;1.10;;;1.00;;
10979;SDS011;5543;51.734;8.744;2022-11-20T04:26:25;1.10;;;1.00;;
10979;SDS011;5543;51.734;8.744;2022-11-20T04:28:55;2.53;;;1.83;;
10979;SDS011;5543;51.734;8.744;2022-11-20T04:31:25;1.47;;;1.10;;
10979;SDS011;5543;51.734;8.744;2022-11-20T04:33:54;3.37;;;1.43;;
10979;SDS011;5543;51.734;8.744;2022-11-20T04:36:23;4.27;;;1.17;;
10979;SDS011;5543;51.734;8.744;2022-11-20T04:38:55;5.07;;;1.00;;
10979;SDS011;5543;51.734;8.744;2022-11-20T04:41:24;3.17;;;1.57;;
10979;SDS011;5543;51.734;8.744;2022-11-20T04:43:55;2.93;;;1.23;;
10979;SDS011;5543;51.734;8.744;2022-11-20T04:46:26;1.60;;;0.67;;
10979;SDS011;5543;51.734;8.744;2022-11-20T04:48:54;1.73;;;1.17;;
10979;SDS011;5543;51.734;8.744;2022-11-20T04:51:22;1.77;;;1.57;;
10979;SDS011;5543;51.734;8.744;2022-11-20T04:53:51;1.47;;;1.10;;
10979;SDS011;5543;51.734;8.744;2022-11-20T04:56:20;0.90;;;0.90;;
10979;SDS011;5543;51.734;8.744;2022-11-20T04:58:48;0.73;;;0.73;;
10979;SDS011;5543;51.734;8.744;2022-11-20T05:01:17;1.33;;;1.17;;
10979;SDS011;5543;51.734;8.744;2022-11-20T05:03:47;2.97;;;1.00;;
10979;SDS011;5543;51.734;8.744;2022-11-20T05:06:16;3.30;;;1.10;;
10979;SDS011;5543;51.734;8.744;2022-11-20T05:08:45;2.13;;;0.93;;
10979;SDS011;5543;51.734;8.744;2022-11-20T05:11:14;3.17;;;1.80;;
10979;SDS011;5543;51.734;8.744;2022-11-20T05:13:45;2.40;;;1.30;;
10979;SDS011;5543;51.734;8.744;2022-11-20T05:16:14;1.00;;;0.80;;
10979;SDS011;5543;51.734;8.744;2022-11-20T05:18:44;0.50;;;0.50;;
10979;SDS011;5543;51.734;8.744;2022-11-20T05:21:12;2.00;;;1.17;;
10979;SDS011;5543;51.734;8.744;2022-11-20T05:23:41;1.87;;;1.77;;
10979;SDS011;5543;51.734;8.744;2022-11-20T05:26:12;1.23;;;1.13;;
10979;SDS011;5543;51.734;8.744;2022-11-20T05:28:41;2.33;;;1.63;;
10979;SDS011;5543;51.734;8.744;2022-11-20T05:31:11;1.10;;;1.00;;
10979;SDS011;5543;51.734;8.744;2022-11-20T05:33:41;7.40;;;1.33;;
10979;SDS011;5543;51.734;8.744;2022-11-20T05:36:10;0.97;;;0.87;;
10979;SDS011;5543;51.734;8.744;2022-11-20T05:38:40;1.83;;;1.33;;
10979;SDS011;5543;51.734;8.744;2022-11-20T05:41:09;3.30;;;1.93;;
10979;SDS011;5543;51.734;8.744;2022-11-20T05:43:40;2.40;;;1.10;;
10979;SDS011;5543;51.734;8.744;2022-11-20T05:46:09;2.13;;;1.93;;
10979;SDS011;5543;51.734;8.744;2022-11-20T05:48:40;4.23;;;1.20;;
10979;SDS011;5543;51.734;8.744;2022-11-20T05:51:12;1.93;;;1.50;;
10979;SDS011;5543;51.734;8.744;2022-11-20T05:53:41;2.57;;;1.57;;
10979;SDS011;5543;51.734;8.744;2022-11-20T05:56:14;1.97;;;1.30;;
10979;SDS011;5543;51.734;8.744;2022-11-20T05:58:44;2.67;;;1.33;;
10979;SDS011;5543;51.734;8.744;2022-11-20T06:01:14;1.37;;;1.27;;
10979;SDS011;5543;51.734;8.744;2022-11-20T06:03:44;2.93;;;1.50;;
10979;SDS011;5543;51.734;8.744;2022-11-20T06:06:14;1.87;;;1.20;;
10979;SDS011;5543;51.734;8.744;2022-11-20T06:08:43;1.60;;;1.13;;
10979;SDS011;5543;51.734;8.744;2022-11-20T06:11:12;4.80;;;0.90;;
10979;SDS011;5543;51.734;8.744;2022-11-20T06:13:41;1.40;;;1.13;;
10979;SDS011;5543;51.734;8.744;2022-11-20T06:16:11;3.17;;;1.73;;
10979;SDS011;5543;51.734;8.744;2022-11-20T06:18:41;5.33;;;2.43;;
10979;SDS011;5543;51.734;8.744;2022-11-20T06:21:10;3.23;;;2.63;;
10979;SDS011;5543;51.734;8.744;2022-11-20T06:23:40;0.93;;;0.87;;
10979;SDS011;5543;51.734;8.744;2022-11-20T06:26:09;3.53;;;1.40;;
10979;SDS011;5543;51.734;8.744;2022-11-20T06:28:39;2.63;;;1.60;;
10979;SDS011;5543;51.734;8.744;2022-11-20T06:31:07;2.93;;;1.40;;
10979;SDS011;5543;51.734;8.744;2022-11-20T06:33:38;2.83;;;1.23;;
10979;SDS011;5543;51.734;8.744;2022-11-20T06:36:08;2.27;;;1.20;;
10979;SDS011;5543;51.734;8.744;2022-11-20T06:38:38;1.70;;;1.37;;
10979;SDS011;5543;51.734;8.744;2022-11-20T06:41:07;1.83;;;1.53;;
10979;SDS011;5543;51.734;8.744;2022-11-20T06:43:37;2.17;;;0.90;;
10979;SDS011;5543;51.734;8.744;2022-11-20T06:46:05;1.90;;;1.40;;
10979;SDS011;5543;51.734;8.744;2022-11-20T06:48:33;4.17;;;1.40;;
10979;SDS011;5543;51.734;8.744;2022-11-20T06:51:02;2.00;;;1.60;;
10979;SDS011;5543;51.734;8.744;2022-11-20T06:53:32;5.23;;;1.57;;
10979;SDS011;5543;51.734;8.744;2022-11-20T06:56:01;4.30;;;2.07;;
10979;SDS011;5543;51.734;8.744;2022-11-20T06:58:30;5.53;;;1.87;;
10979;SDS011;5543;51.734;8.744;2022-11-20T07:01:00;1.63;;;1.03;;
10979;SDS011;5543;51.734;8.744;2022-11-20T07:03:29;1.17;;;1.00;;
10979;SDS011;5543;51.734;8.744;2022-11-20T07:05:58;2.93;;;1.17;;
10979;SDS011;5543;51.734;8.744;2022-11-20T07:08:27;4.13;;;2.77;;
10979;SDS011;5543;51.734;8.744;2022-11-20T07:10:58;2.07;;;1.27;;
10979;SDS011;5543;51.734;8.744;2022-11-20T07:13:27;3.00;;;1.47;;
10979;SDS011;5543;51.734;8.744;2022-11-20T07:15:58;1.50;;;1.27;;
10979;SDS011;5543;51.734;8.744;2022-11-20T07:18:27;2.90;;;1.47;;
10979;SDS011;5543;51.734;8.744;2022-11-20T07:20:55;2.50;;;1.47;;
10979;SDS011;5543;51.734;8.744;2022-11-20T07:23:23;1.13;;;1.00;;
10979;SDS011;5543;51.734;8.744;2022-11-20T07:25:51;2.37;;;1.20;;
10979;SDS011;5543;51.734;8.744;2022-11-20T07:28:20;3.53;;;1.30;;
10979;SDS011;5543;51.734;8.744;2022-11-20T07:30:49;3.40;;;1.70;;
10979;SDS011;5543;51.734;8.744;2022-11-20T07:33:18;4.53;;;1.83;;
10979;SDS011;5543;51.734;8.744;2022-11-20T07:35:46;2.90;;;1.27;;
10979;SDS011;5543;51.734;8.744;2022-11-20T07:38:14;3.93;;;2.00;;
10979;SDS011;5543;51.734;8.744;2022-11-20T07:40:42;3.87;;;1.80;;
10979;SDS011;5543;51.734;8.744;2022-11-20T07:43:10;2.33;;;1.20;;
10979;SDS011;5543;51.734;8.744;2022-11-20T07:45:40;3.57;;;1.70;;
10979;SDS011;5543;51.734;8.744;2022-11-20T07:48:08;2.77;;;1.53;;
10979;SDS011;5543;51.734;8.744;2022-11-20T07:50:36;3.27;;;2.07;;
10979;SDS011;5543;51.734;8.744;2022-11-20T07:53:04;8.37;;;3.23;;
10979;SDS011;5543;51.734;8.744;2022-11-20T07:55:33;5.83;;;2.37;;
10979;SDS011;5543;51.734;8.744;2022-11-20T07:58:01;6.07;;;2.00;;
10979;SDS011;5543;51.734;8.744;2022-11-20T08:00:29;2.47;;;1.70;;
10979;SDS011;5543;51.734;8.744;2022-11-20T08:02:58;4.27;;;1.87;;
10979;SDS011;5543;51.734;8.744;2022-11-20T08:05:26;2.50;;;1.50;;
10979;SDS011;5543;51.734;8.744;2022-11-20T08:07:55;2.63;;;1.47;;
10979;SDS011;5543;51.734;8.744;2022-11-20T08:10:26;3.50;;;1.70;;
10979;SDS011;5543;51.734;8.744;2022-11-20T08:12:54;3.93;;;2.07;;
10979;SDS011;5543;51.734;8.744;2022-11-20T08:15:39;1.73;;;0.60;;
10979;SDS011;5543;51.734;8.744;2022-11-20T08:18:09;4.57;;;1.47;;
10979;SDS011;5543;51.734;8.744;2022-11-20T08:20:56;6.77;;;1.40;;
10979;SDS011;5543;51.734;8.744;2022-11-20T08:23:24;2.23;;;1.67;;
10979;SDS011;5543;51.734;8.744;2022-11-20T08:25:52;5.00;;;1.60;;
10979;SDS011;5543;51.734;8.744;2022-11-20T08:28:20;1.37;;;1.20;;
10979;SDS011;5543;51.734;8.744;2022-11-20T08:30:48;1.73;;;1.50;;
10979;SDS011;5543;51.734;8.744;2022-11-20T08:33:18;4.23;;;1.20;;
10979;SDS011;5543;51.734;8.744;2022-11-20T08:35:46;1.60;;;1.27;;
10979;SDS011;5543;51.734;8.744;2022-11-20T08:38:14;2.10;;;1.60;;
10979;SDS011;5543;51.734;8.744;2022-11-20T08:40:42;2.50;;;1.63;;
10979;SDS011;5543;51.734;8.744;2022-11-20T08:43:31;1.87;;;0.90;;
10979;SDS011;5543;51.734;8.744;2022-11-20T08:45:59;1.67;;;0.60;;
10979;SDS011;5543;51.734;8.744;2022-11-20T08:48:29;2.77;;;1.70;;
10979;SDS011;5543;51.734;8.744;2022-11-20T08:50:58;2.00;;;1.47;;
10979;SDS011;5543;51.734;8.744;2022-11-20T08:53:26;1.70;;;1.30;;
10979;SDS011;5543;51.734;8.744;2022-11-20T08:55:56;1.87;;;1.13;;
10979;SDS011;5543;51.734;8.744;2022-11-20T08:58:25;2.40;;;1.53;;
10979;SDS011;5543;51.734;8.744;2022-11-20T09:00:54;4.43;;;1.57;;
10979;SDS011;5543;51.734;8.744;2022-11-20T09:03:22;6.93;;;1.63;;
10979;SDS011;5543;51.734;8.744;2022-11-20T09:06:00;1.50;;;1.33;;
10979;SDS011;5543;51.734;8.744;2022-11-20T09:08:29;1.90;;;1.23;;
10979;SDS011;5543;51.734;8.744;2022-11-20T09:10:57;6.73;;;1.67;;
10979;SDS011;5543;51.734;8.744;2022-11-20T09:13:27;2.07;;;1.10;;
10979;SDS011;5543;51.734;8.744;2022-11-20T09:15:56;3.07;;;1.37;;
10979;SDS011;5543;51.734;8.744;2022-11-20T09:18:26;6.13;;;2.33;;
10979;SDS011;5543;51.734;8.744;2022-11-20T09:20:57;1.87;;;1.23;;
10979;SDS011;5543;51.734;8.744;2022-11-20T09:23:27;2.90;;;1.67;;
10979;SDS011;5543;51.734;8.744;2022-11-20T09:26:01;3.63;;;1.90;;
10979;SDS011;5543;51.734;8.744;2022-11-20T09:28:30;7.77;;;2.47;;
10979;SDS011;5543;51.734;8.744;2022-11-20T09:30:58;2.37;;;1.73;;
10979;SDS011;5543;51.734;8.744;2022-11-20T09:33:27;6.73;;;2.30;;
10979;SDS011;5543;51.734;8.744;2022-11-20T09:35:55;3.67;;;2.30;;
10979;SDS011;5543;51.734;8.744;2022-11-20T09:38:23;5.73;;;3.20;;
10979;SDS011;5543;51.734;8.744;2022-11-20T09:40:54;4.30;;;2.23;;
10979;SDS011;5543;51.734;8.744;2022-11-20T09:43:27;8.73;;;2.20;;
10979;SDS011;5543;51.734;8.744;2022-11-20T09:46:09;4.07;;;2.17;;
10979;SDS011;5543;51.734;8.744;2022-11-20T09:51:41;4.57;;;1.90;;
10979;SDS011;5543;51.734;8.744;2022-11-20T09:54:15;7.28;;;2.72;;
10979;SDS011;5543;51.734;8.744;2022-11-20T09:56:47;4.82;;;3.10;;
10979;SDS011;5543;51.734;8.744;2022-11-20T09:59:26;4.57;;;2.70;;
10979;SDS011;5543;51.734;8.744;2022-11-20T10:02:02;4.47;;;2.35;;
10979;SDS011;5543;51.734;8.744;2022-11-20T10:04:43;5.18;;;3.13;;
10979;SDS011;5543;51.734;8.744;2022-11-20T10:07:17;4.50;;;3.63;;
10979;SDS011;5543;51.734;8.744;2022-11-20T10:09:58;4.50;;;2.75;;
10979;SDS011;5543;51.734;8.744;2022-11-20T10:12:31;4.28;;;2.63;;
10979;SDS011;5543;51.734;8.744;2022-11-20T10:15:21;4.70;;;2.10;;
10979;SDS011;5543;51.734;8.744;2022-11-20T10:17:58;4.53;;;1.83;;
10979;SDS011;5543;51.734;8.744;2022-11-20T10:20:39;7.23;;;2.77;;
10979;SDS011;5543;51.734;8.744;2022-11-20T10:23:29;3.33;;;1.73;;
10979;SDS011;5543;51.734;8.744;2022-11-20T10:26:12;5.73;;;2.30;;
10979;SDS011;5543;51.734;8.744;2022-11-20T10:28:51;5.13;;;2.20;;
10979;SDS011;5543;51.734;8.744;2022-11-20T10:31:37;2.83;;;2.17;;
10979;SDS011;5543;51.734;8.744;2022-11-20T10:34:12;3.33;;;1.80;;
10979;SDS011;5543;51.734;8.744;2022-11-20T10:36:49;3.77;;;2.07;;
10979;SDS011;5543;51.734;8.744;2022-11-20T10:39:24;7.07;;;2.27;;
10979;SDS011;5543;51.734;8.744;2022-11-20T10:41:58;4.70;;;1.97;;
10979;SDS011;5543;51.734;8.744;2022-11-20T10:44:29;7.57;;;2.57;;
10979;SDS011;5543;51.734;8.744;2022-11-20T10:47:21;3.93;;;2.23;;
10979;SDS011;5543;51.734;8.744;2022-11-20T10:49:50;6.10;;;2.20;;
10979;SDS011;5543;51.734;8.744;2022-11-20T10:52:22;5.07;;;2.70;;
10979;SDS011;5543;51.734;8.744;2022-11-20T10:54:58;4.83;;;2.27;;
10979;SDS011;5543;51.734;8.744;2022-11-20T10:57:46;5.50;;;2.43;;
10979;SDS011;5543;51.734;8.744;2022-11-20T11:00:22;4.77;;;2.63;;
10979;SDS011;5543;51.734;8.744;2022-11-20T11:02:51;6.33;;;2.70;;
10979;SDS011;5543;51.734;8.744;2022-11-20T11:05:23;3.07;;;2.20;;
10979;SDS011;5543;51.734;8.744;2022-11-20T11:07:59;5.28;;;2.60;;
10979;SDS011;5543;51.734;8.744;2022-11-20T11:10:28;6.10;;;3.25;;
10979;SDS011;5543;51.734;8.744;2022-11-20T11:13:03;5.13;;;2.23;;
10979;SDS011;5543;51.734;8.744;2022-11-20T11:15:38;4.97;;;2.87;;
10979;SDS011;5543;51.734;8.744;2022-11-20T11:18:08;2.93;;;2.20;;
10979;SDS011;5543;51.734;8.744;2022-11-20T11:20:37;3.63;;;2.27;;
10979;SDS011;5543;51.734;8.744;2022-11-20T11:23:10;3.67;;;2.57;;
10979;SDS011;5543;51.734;8.744;2022-11-20T11:25:56;5.63;;;2.40;;
10979;SDS011;5543;51.734;8.744;2022-11-20T11:28:26;5.57;;;2.30;;
10979;SDS011;5543;51.734;8.744;2022-11-20T11:30:56;6.17;;;2.93;;
10979;SDS011;5543;51.734;8.744;2022-11-20T11:33:25;4.27;;;2.60;;
10979;SDS011;5543;51.734;8.744;2022-11-20T11:35:55;4.47;;;2.10;;
10979;SDS011;5543;51.734;8.744;2022-11-20T11:38:28;8.30;;;3.00;;
10979;SDS011;5543;51.734;8.744;2022-11-20T11:40:58;5.80;;;2.37;;
10979;SDS011;5543;51.734;8.744;2022-11-20T11:43:26;4.77;;;2.50;;
10979;SDS011;5543;51.734;8.744;2022-11-20T11:46:27;4.23;;;2.43;;
10979;SDS011;5543;51.734;8.744;2022-11-20T11:48:58;5.03;;;2.80;;
10979;SDS011;5543;51.734;8.744;2022-11-20T11:54:20;7.57;;;3.20;;
10979;SDS011;5543;51.734;8.744;2022-11-20T11:56:52;3.67;;;1.97;;
10979;SDS011;5543;51.734;8.744;2022-11-20T11:59:22;7.47;;;2.60;;
10979;SDS011;5543;51.734;8.744;2022-11-20T12:02:03;3.20;;;2.43;;
10979;SDS011;5543;51.734;8.744;2022-11-20T12:04:45;3.83;;;1.93;;
10979;SDS011;5543;51.734;8.744;2022-11-20T12:07:20;6.47;;;3.27;;
10979;SDS011;5543;51.734;8.744;2022-11-20T12:10:14;4.70;;;2.37;;
10979;SDS011;5543;51.734;8.744;2022-11-20T12:12:48;5.17;;;2.27;;
10979;SDS011;5543;51.734;8.744;2022-11-20T12:15:23;4.03;;;1.97;;
10979;SDS011;5543;51.734;8.744;2022-11-20T12:17:57;6.23;;;2.50;;
10979;SDS011;5543;51.734;8.744;2022-11-20T12:20:27;6.40;;;3.30;;
10979;SDS011;5543;51.734;8.744;2022-11-20T12:23:01;5.88;;;3.35;;
10979;SDS011;5543;51.734;8.744;2022-11-20T12:25:36;6.40;;;3.63;;
10979;SDS011;5543;51.734;8.744;2022-11-20T12:28:12;5.10;;;2.60;;
10979;SDS011;5543;51.734;8.744;2022-11-20T12:31:14;7.32;;;3.00;;
10979;SDS011;5543;51.734;8.744;2022-11-20T12:33:57;9.83;;;3.20;;
10979;SDS011;5543;51.734;8.744;2022-11-20T12:36:37;5.93;;;2.70;;
10979;SDS011;5543;51.734;8.744;2022-11-20T12:39:13;4.87;;;2.57;;
10979;SDS011;5543;51.734;8.744;2022-11-20T12:41:57;5.03;;;3.17;;
10979;SDS011;5543;51.734;8.744;2022-11-20T12:45:07;6.20;;;3.60;;
10979;SDS011;5543;51.734;8.744;2022-11-20T12:50:49;6.40;;;2.93;;
10979;SDS011;5543;51.734;8.744;2022-11-20T12:53:44;6.73;;;2.97;;
10979;SDS011;5543;51.734;8.744;2022-11-20T12:56:24;6.03;;;3.13;;
10979;SDS011;5543;51.734;8.744;2022-11-20T12:59:04;6.30;;;2.43;;
10979;SDS011;5543;51.734;8.744;2022-11-20T13:01:44;9.97;;;4.80;;
10979;SDS011;5543;51.734;8.744;2022-11-20T13:04:21;3.77;;;2.73;;
10979;SDS011;5543;51.734;8.744;2022-11-20T13:07:02;5.80;;;2.47;;
10979;SDS011;5543;51.734;8.744;2022-11-20T13:09:33;4.20;;;2.57;;
10979;SDS011;5543;51.734;8.744;2022-11-20T13:12:05;5.60;;;3.03;;
10979;SDS011;5543;51.734;8.744;2022-11-20T13:14:38;3.77;;;2.40;;
10979;SDS011;5543;51.734;8.744;2022-11-20T13:17:11;5.27;;;2.60;;
10979;SDS011;5543;51.734;8.744;2022-11-20T13:19:52;7.60;;;2.97;;
10979;SDS011;5543;51.734;8.744;2022-11-20T13:22:26;3.63;;;2.57;;
10979;SDS011;5543;51.734;8.744;2022-11-20T13:24:56;5.67;;;2.70;;
10979;SDS011;5543;51.734;8.744;2022-11-20T13:27:24;6.00;;;2.70;;
10979;SDS011;5543;51.734;8.744;2022-11-20T13:29:59;4.30;;;2.70;;
10979;SDS011;5543;51.734;8.744;2022-11-20T13:32:29;2.83;;;2.00;;
10979;SDS011;5543;51.734;8.744;2022-11-20T13:34:59;5.53;;;1.90;;
10979;SDS011;5543;51.734;8.744;2022-11-20T13:37:30;5.43;;;2.70;;
10979;SDS011;5543;51.734;8.744;2022-11-20T13:40:13;4.17;;;2.03;;
10979;SDS011;5543;51.734;8.744;2022-11-20T13:42:55;3.73;;;1.60;;
10979;SDS011;5543;51.734;8.744;2022-11-20T13:45:29;3.97;;;2.17;;
10979;SDS011;5543;51.734;8.744;2022-11-20T13:48:00;3.03;;;1.63;;
10979;SDS011;5543;51.734;8.744;2022-11-20T13:50:39;3.27;;;1.50;;
10979;SDS011;5543;51.734;8.744;2022-11-20T13:53:19;3.80;;;2.47;;
10979;SDS011;5543;51.734;8.744;2022-11-20T13:55:59;4.10;;;2.40;;
10979;SDS011;5543;51.734;8.744;2022-11-20T13:58:34;4.33;;;1.73;;
10979;SDS011;5543;51.734;8.744;2022-11-20T14:01:14;3.73;;;2.07;;
10979;SDS011;5543;51.734;8.744;2022-11-20T14:03:45;3.90;;;1.90;;
10979;SDS011;5543;51.734;8.744;2022-11-20T14:06:33;4.93;;;1.97;;
10979;SDS011;5543;51.734;8.744;2022-11-20T14:09:25;4.93;;;2.43;;
10979;SDS011;5543;51.734;8.744;2022-11-20T14:11:54;7.10;;;2.77;;
10979;SDS011;5543;51.734;8.744;2022-11-20T14:14:23;5.00;;;2.07;;
10979;SDS011;5543;51.734;8.744;2022-11-20T14:16:52;6.00;;;2.80;;
10979;SDS011;5543;51.734;8.744;2022-11-20T14:19:32;3.70;;;2.10;;
10979;SDS011;5543;51.734;8.744;2022-11-20T14:22:07;3.20;;;2.30;;
10979;SDS011;5543;51.734;8.744;2022-11-20T14:24:46;3.83;;;2.10;;
10979;SDS011;5543;51.734;8.744;2022-11-20T14:27:15;4.13;;;2.13;;
10979;SDS011;5543;51.734;8.744;2022-11-20T14:29:45;8.57;;;2.30;;
10979;SDS011;5543;51.734;8.744;2022-11-20T14:32:16;3.00;;;2.37;;
10979;SDS011;5543;51.734;8.744;2022-11-20T14:34:47;5.03;;;2.20;;
10979;SDS011;5543;51.734;8.744;2022-11-20T14:37:18;4.03;;;1.97;;
10979;SDS011;5543;51.734;8.744;2022-11-20T14:39:50;3.47;;;1.90;;
10979;SDS011;5543;51.734;8.744;2022-11-20T14:42:20;5.30;;;2.23;;
10979;SDS011;5543;51.734;8.744;2022-11-20T14:44:50;6.50;;;2.30;;
10979;SDS011;5543;51.734;8.744;2022-11-20T14:47:21;5.00;;;2.20;;
10979;SDS011;5543;51.734;8.744;2022-11-20T14:49:52;4.83;;;2.00;;
10979;SDS011;5543;51.734;8.744;2022-11-20T14:52:22;4.00;;;2.50;;
10979;SDS011;5543;51.734;8.744;2022-11-20T14:54:53;3.53;;;2.00;;
10979;SDS011;5543;51.734;8.744;2022-11-20T14:57:26;4.70;;;1.63;;
10979;SDS011;5543;51.734;8.744;2022-11-20T15:00:06;3.83;;;1.90;;
10979;SDS011;5543;51.734;8.744;2022-11-20T15:02:45;3.70;;;2.33;;
10979;SDS011;5543;51.734;8.744;2022-11-20T15:05:15;2.93;;;1.60;;
10979;SDS011;5543;51.734;8.744;2022-11-20T15:07:46;4.03;;;2.30;;
10979;SDS011;5543;51.734;8.744;2022-11-20T15:10:21;4.80;;;2.73;;
10979;SDS011;5543;51.734;8.744;2022-11-20T15:12:51;4.07;;;2.30;;
10979;SDS011;5543;51.734;8.744;2022-11-20T15:15:23;4.33;;;2.40;;
10979;SDS011;5543;51.734;8.744;2022-11-20T15:17:55;4.77;;;2.53;;
10979;SDS011;5543;51.734;8.744;2022-11-20T15:20:24;5.27;;;2.90;;
10979;SDS011;5543;51.734;8.744;2022-11-20T15:22:54;6.60;;;3.30;;
10979;SDS011;5543;51.734;8.744;2022-11-20T15:25:24;7.83;;;3.10;;
10979;SDS011;5543;51.734;8.744;2022-11-20T15:27:53;4.80;;;4.30;;
10979;SDS011;5543;51.734;8.744;2022-11-20T15:30:23;5.73;;;3.37;;
10979;SDS011;5543;51.734;8.744;2022-11-20T15:32:51;5.20;;;2.90;;
10979;SDS011;5543;51.734;8.744;2022-11-20T15:35:19;7.27;;;3.13;;
10979;SDS011;5543;51.734;8.744;2022-11-20T15:37:48;8.90;;;2.87;;